Detall de PIREP

Printer-friendly versionPDF version

[2015/04/15 08:11:00]
Flight IATA:CT1005
Pilot Number:011
Company ICAO:CAT
Aircraft Type:B738/F
PAX:160
Departing Airport: LHBP
Destination Airport: EINN
Alternate Airport:EICK
Online: VATSIM
Route:BADOV UP41 BABUS DCT VARIK UL602 KEMAD DCT RAVLO UY70 OTBED UL26 PENIL UL70 BAGSO DCT DIGAN
Flight Level:F380
No Slew and time accel
No pause
Crash detect
Detect pilot in Cockpit between each 30 and 45 minutes
08:11 Zero fuel Weight: 133990 Lbs, Fuel Weight: 26188 Lbs
08:11 VATSIM:LHBP 150800Z 23010KT 210V270 CAVOK 17/03 Q1021 NOSIG
08:11 VATSIM:EINN 150800Z 31008KT 9999 FEW005 SCT008 BKN017 09/08 Q1018 TEMPO BKN005
08:17 Parking Brakes off
08:35 Take-off
08:35 Take off Weight: 157575 Lbs
08:35 Wind: 227º @ 010 Knots Heading: 308º
08:35 POS N47º 26´ 27´´ E019º 13´ 58´´
08:35 Flaps:5 at 162 Knots
08:35 Gear Up: 173 Knots
08:36 Flaps:6 at 214 Knots
08:36 Flaps:7 at 214 Knots
08:36 Flaps:2 at 214 Knots
08:36 Flaps:1 at 235 Knots
08:36 Flaps:0 at 236 Knots
08:50 Wind:209º@016 Knots Heading: 308º Ground Speed: 398 Knots Altitude 33192 ft
08:55 TOC
08:55 Fuel Weight: 19695 Lb
08:56 TOD
08:56 Fuel Weight: 19590 Lb
08:59 TOC
08:59 Fuel Weight: 19310 Lb
09:05 Wind:280º@046 Knots Heading: 292º Ground Speed: 414 Knots Altitude 38198 ft
09:20 Wind:277º@040 Knots Heading: 290º Ground Speed: 419 Knots Altitude 38188 ft
09:35 Wind:258º@052 Knots Heading: 292º Ground Speed: 422 Knots Altitude 38175 ft
09:50 Wind:249º@040 Knots Heading: 292º Ground Speed: 435 Knots Altitude 38146 ft
10:05 Wind:221º@047 Knots Heading: 288º Ground Speed: 445 Knots Altitude 38116 ft
10:20 Wind:242º@052 Knots Heading: 285º Ground Speed: 424 Knots Altitude 38097 ft
10:35 Wind:267º@055 Knots Heading: 278º Ground Speed: 404 Knots Altitude 38077 ft
10:50 Wind:264º@046 Knots Heading: 276º Ground Speed: 412 Knots Altitude 38113 ft
11:03 TOD
11:03 Fuel Weight: 9607 Lb
11:05 Wind:300º@025 Knots Heading: 273º Ground Speed: 415 Knots Altitude 34967 ft
11:20 Wind:328º@022 Knots Heading: 248º Ground Speed: 339 Knots Altitude 14265 ft
11:35 Wind:347º@014 Knots Heading: 238º Ground Speed: 255 Knots Altitude 5987 ft
11:35 Flaps:1 at 241 Knots
11:35 Flaps:2 at 240 Knots
11:37 Flaps:3 at 231 Knots
11:37 Flaps:4 at 230 Knots
11:38 Flaps:5 at 196 Knots
11:38 Flaps:6 at 173 Knots
11:38 Gear Down: 171 Knots
11:39 Flaps:7 at 160 Knots
11:40 Flaps:6 at 154 Knots
11:40 Flaps:7 at 154 Knots
11:40 Flaps:8 at 153 Knots
11:44 Gear Up: 150 Knots
11:44 Gear Down: 149 Knots
11:44 TouchDown:Rate -348 ft/min Speed: 136 Knots
11:44 VATSIM:EINN 151130Z 35006KT 9999 FEW005 BKN017 BKN020 11/06 Q1019 NOSIG
11:44 Land
11:44 Wind:358º@006 Knots
11:44 Heading: 051º
11:44 Flight Duration: 03:09
11:44 Landing Weight: 141378 Lbs
11:44 POS N52º 42´ 13´´ W008º 55´ 15´´
11:47 Parking brakes on
11:47 Block to Block Duration: 03:30
11:47 Final Fuel: 7209 Lbls
11:47 Spent Fuel: 18979 Lbls
11:47 Flight Length: 1029 NM
11:47 TOD Land Length: 116 NM

Exportar CSV

Powered by Drupal - Modified by Danger4k